Time;durP1;ratioP1;P1;durP2;ratioP2;P2;SDS_P1;SDS_P2;PMS_P1;PMS_P2;Temp;Humidity;BMP_temperature;BMP_pressure;BME280_temperature;BME280_humidity;BME280_pressure;Samples;Min_cycle;Max_cycle;Signal;HPM_P1;HPM_P2
2022/11/22 00:01:09;;;;;;;4.57;2.97;;;;;;;;;;5033347;28;20033;-39
2022/11/22 00:03:35;;;;;;;4.30;2.50;;;;;;;;;;5032951;28;20026;-40
2022/11/22 00:06:00;;;;;;;3.20;2.05;;;;;;;;;;5033120;28;20057;-40
2022/11/22 00:08:25;;;;;;;4.38;2.55;;;;;;;;;;5033081;28;20033;-39
2022/11/22 00:10:51;;;;;;;3.28;2.17;;;;;;;;;;5032707;28;20509;-39
2022/11/22 00:13:17;;;;;;;5.90;3.17;;;;;;;;;;5032731;28;20032;-40
2022/11/22 00:15:42;;;;;;;4.80;2.42;;;;;;;;;;5032968;28;20112;-40
2022/11/22 00:18:07;;;;;;;4.15;2.40;;;;;;;;;;5032733;28;20439;-43
2022/11/22 00:20:33;;;;;;;8.75;2.78;;;;;;;;;;5032540;28;20033;-40
2022/11/22 00:22:58;;;;;;;2.75;1.95;;;;;;;;;;5032543;28;20079;-39
2022/11/22 00:25:24;;;;;;;4.53;2.47;;;;;;;;;;5032805;28;20064;-40
2022/11/22 00:27:49;;;;;;;4.38;2.10;;;;;;;;;;5032685;28;20456;-39
2022/11/22 00:30:15;;;;;;;4.47;2.15;;;;;;;;;;5032332;28;20138;-40
2022/11/22 00:32:40;;;;;;;3.05;2.35;;;;;;;;;;5031051;28;20043;-39
2022/11/22 00:35:06;;;;;;;6.80;3.58;;;;;;;;;;5032297;28;20033;-39
2022/11/22 00:37:31;;;;;;;3.70;2.53;;;;;;;;;;5032235;28;20453;-39
2022/11/22 00:39:57;;;;;;;3.00;1.98;;;;;;;;;;5032287;28;20045;-39
2022/11/22 00:42:22;;;;;;;4.55;2.75;;;;;;;;;;5032515;28;20021;-39
2022/11/22 00:44:47;;;;;;;4.95;2.50;;;;;;;;;;5031590;28;20044;-40
2022/11/22 00:47:13;;;;;;;3.78;2.70;;;;;;;;;;5032254;28;20025;-39
2022/11/22 00:49:38;;;;;;;4.10;2.28;;;;;;;;;;5031989;28;20056;-40
2022/11/22 00:52:03;;;;;;;4.57;2.28;;;;;;;;;;5031881;28;20028;-40
2022/11/22 00:54:29;;;;;;;5.13;2.65;;;;;;;;;;5032290;28;20036;-40
2022/11/22 00:56:54;;;;;;;4.25;2.70;;;;;;;;;;5032352;28;20526;-40
2022/11/22 00:59:20;;;;;;;4.53;2.60;;;;;;;;;;5031945;28;20033;-40
2022/11/22 01:01:45;;;;;;;3.65;2.78;;;;;;;;;;5031897;28;20435;-40
2022/11/22 01:04:10;;;;;;;2.63;2.00;;;;;;;;;;5031686;28;20056;-39
2022/11/22 01:06:36;;;;;;;4.72;2.10;;;;;;;;;;5031859;28;20022;-39
2022/11/22 01:09:01;;;;;;;3.58;2.17;;;;;;;;;;5031778;28;20033;-39
2022/11/22 01:11:27;;;;;;;3.88;2.13;;;;;;;;;;5031628;28;20033;-40
2022/11/22 01:13:52;;;;;;;3.70;2.08;;;;;;;;;;5031609;28;20087;-40
2022/11/22 01:16:18;;;;;;;4.18;2.47;;;;;;;;;;5031949;28;20064;-39
2022/11/22 01:18:44;;;;;;;4.28;3.03;;;;;;;;;;5031795;28;20174;-39
2022/11/22 01:21:09;;;;;;;5.43;2.97;;;;;;;;;;5031486;28;20017;-39
2022/11/22 01:23:35;;;;;;;3.72;2.80;;;;;;;;;;5031865;28;20498;-40
2022/11/22 01:26:01;;;;;;;2.95;1.92;;;;;;;;;;5031544;28;20075;-40
2022/11/22 01:28:26;;;;;;;12.93;2.50;;;;;;;;;;5031555;28;20476;-39
2022/11/22 01:30:52;;;;;;;5.25;2.63;;;;;;;;;;5031694;28;20074;-40
2022/11/22 01:33:18;;;;;;;3.15;2.47;;;;;;;;;;5031694;28;20398;-39
2022/11/22 01:35:43;;;;;;;5.70;3.05;;;;;;;;;;5031386;28;20024;-39
2022/11/22 01:38:09;;;;;;;4.30;2.80;;;;;;;;;;5031246;28;20045;-39
2022/11/22 01:40:34;;;;;;;4.05;2.45;;;;;;;;;;5031422;28;20024;-40
2022/11/22 01:43:00;;;;;;;3.60;2.28;;;;;;;;;;5031225;28;20108;-39
2022/11/22 01:45:28;;;;;;;2.40;1.65;;;;;;;;;;5031426;28;20063;-40
2022/11/22 01:48:00;;;;;;;3.90;2.65;;;;;;;;;;5031489;28;20357;-40
2022/11/22 01:50:26;;;;;;;5.78;3.00;;;;;;;;;;5031477;28;20172;-40
2022/11/22 01:52:53;;;;;;;3.17;1.60;;;;;;;;;;5031323;28;20442;-40
2022/11/22 01:55:18;;;;;;;5.07;3.00;;;;;;;;;;5032028;28;20116;-40
2022/11/22 01:57:45;;;;;;;2.97;2.70;;;;;;;;;;5035487;28;20159;-39
2022/11/22 02:00:12;;;;;;;2.85;2.08;;;;;;;;;;5033823;28;20041;-39
2022/11/22 02:02:43;;;;;;;;;;;;;;;;;;5034555;28;20018;-39
2022/11/22 02:05:10;;;;;;;3.63;2.20;;;;;;;;;;5035295;28;19920;-40
2022/11/22 02:07:40;;;;;;;5.13;3.28;;;;;;;;;;5035218;28;20021;-39
2022/11/22 02:10:06;;;;;;;5.15;2.35;;;;;;;;;;5034903;28;20116;-39
2022/11/22 02:12:33;;;;;;;5.95;2.45;;;;;;;;;;5034910;28;20100;-39
2022/11/22 02:14:58;;;;;;;8.15;3.38;;;;;;;;;;5035134;28;20033;-39
2022/11/22 02:17:24;;;;;;;7.70;3.35;;;;;;;;;;5035069;28;20529;-39
2022/11/22 02:19:51;;;;;;;4.80;2.58;;;;;;;;;;5035118;28;20064;-40
2022/11/22 02:22:35;;;;;;;2.63;1.98;;;;;;;;;;5035061;28;20032;-40
2022/11/22 02:25:11;;;;;;;4.80;2.40;;;;;;;;;;5034931;28;20052;-39
2022/11/22 02:27:36;;;;;;;2.05;1.83;;;;;;;;;;5034783;28;20061;-40
2022/11/22 02:30:02;;;;;;;4.97;2.28;;;;;;;;;;5034867;28;20550;-40
2022/11/22 02:32:27;;;;;;;6.35;2.88;;;;;;;;;;5034922;28;20474;-40
2022/11/22 02:34:52;;;;;;;4.93;2.92;;;;;;;;;;5034646;28;20080;-39
2022/11/22 02:37:21;;;;;;;5.03;2.75;;;;;;;;;;5034718;28;20045;-40
2022/11/22 02:39:49;;;;;;;4.03;2.60;;;;;;;;;;5034895;28;20033;-39
2022/11/22 02:42:14;;;;;;;2.15;1.90;;;;;;;;;;5034728;28;20091;-40
2022/11/22 02:44:40;;;;;;;3.97;2.70;;;;;;;;;;5033233;28;20025;-39
2022/11/22 02:47:05;;;;;;;5.00;2.35;;;;;;;;;;5034171;28;20033;-39
2022/11/22 02:49:30;;;;;;;2.28;1.60;;;;;;;;;;5033428;28;20077;-39
2022/11/22 02:51:56;;;;;;;2.92;2.17;;;;;;;;;;5032068;28;20026;-40
2022/11/22 02:54:21;;;;;;;7.18;2.33;;;;;;;;;;5033302;28;20084;-39
2022/11/22 02:56:47;;;;;;;2.05;1.73;;;;;;;;;;5033099;28;20428;-40
2022/11/22 02:59:12;;;;;;;3.42;2.17;;;;;;;;;;5032880;28;20116;-39
2022/11/22 03:01:37;;;;;;;2.85;2.05;;;;;;;;;;5033185;28;20025;-39
2022/11/22 03:04:03;;;;;;;4.13;2.22;;;;;;;;;;5032831;28;20379;-40
2022/11/22 03:06:28;;;;;;;3.00;2.35;;;;;;;;;;5032738;28;20112;-39
2022/11/22 03:08:54;;;;;;;3.80;2.60;;;;;;;;;;5032838;28;20419;-40
2022/11/22 03:11:19;;;;;;;3.22;1.90;;;;;;;;;;5032989;28;20036;-40
2022/11/22 03:13:44;;;;;;;3.75;1.92;;;;;;;;;;5031587;28;20175;-39
2022/11/22 03:16:10;;;;;;;3.03;1.55;;;;;;;;;;5032649;28;20029;-39
2022/11/22 03:18:36;;;;;;;2.10;1.85;;;;;;;;;;5031332;28;20029;-39
2022/11/22 03:21:02;;;;;;;3.70;2.20;;;;;;;;;;5031331;28;20395;-39
2022/11/22 03:23:28;;;;;;;2.85;1.92;;;;;;;;;;5032847;28;20025;-39
2022/11/22 03:25:53;;;;;;;3.88;2.08;;;;;;;;;;5032978;28;20490;-39
2022/11/22 03:28:20;;;;;;;2.75;1.77;;;;;;;;;;5032809;28;20025;-40
2022/11/22 03:30:46;;;;;;;3.65;2.42;;;;;;;;;;5032429;28;20391;-40
2022/11/22 03:33:11;;;;;;;2.13;1.45;;;;;;;;;;5032712;28;20048;-42
2022/11/22 03:35:36;;;;;;;3.08;1.45;;;;;;;;;;5032434;28;20521;-40
2022/11/22 03:38:02;;;;;;;3.22;1.45;;;;;;;;;;5030919;28;20040;-40
2022/11/22 03:40:28;;;;;;;5.47;1.65;;;;;;;;;;5032368;28;20036;-40
2022/11/22 03:42:53;;;;;;;3.22;1.58;;;;;;;;;;5032544;28;20029;-40
2022/11/22 03:45:19;;;;;;;3.17;2.08;;;;;;;;;;5032278;28;20388;-39
2022/11/22 03:47:44;;;;;;;1.92;1.35;;;;;;;;;;5032597;28;20029;-40
2022/11/22 03:50:09;;;;;;;1.65;1.42;;;;;;;;;;4991711;28;1189347;-39
2022/11/22 03:52:35;;;;;;;1.60;0.93;;;;;;;;;;5031978;28;20033;-40
2022/11/22 03:55:00;;;;;;;5.03;1.73;;;;;;;;;;5033008;28;20168;-40
2022/11/22 03:57:26;;;;;;;1.60;1.50;;;;;;;;;;5032992;28;20026;-39
2022/11/22 03:59:51;;;;;;;0.98;0.90;;;;;;;;;;5033078;28;20025;-39
2022/11/22 04:02:16;;;;;;;0.80;0.80;;;;;;;;;;5033165;28;20637;-39
2022/11/22 04:04:42;;;;;;;2.25;1.40;;;;;;;;;;5032875;28;20064;-40
2022/11/22 04:07:07;;;;;;;3.10;1.88;;;;;;;;;;5032872;28;20454;-39
2022/11/22 04:09:32;;;;;;;2.00;1.80;;;;;;;;;;5032811;28;20431;-39
2022/11/22 04:11:58;;;;;;;2.50;0.98;;;;;;;;;;5032645;28;20017;-40
2022/11/22 04:17:10;;;;;;;0.80;0.80;;;;;;;;;;5032733;28;20083;-39
2022/11/22 04:19:36;;;;;;;1.17;0.93;;;;;;;;;;5031761;28;20029;-40
2022/11/22 04:22:01;;;;;;;0.52;0.52;;;;;;;;;;5032505;28;20088;-40
2022/11/22 04:27:10;;;;;;;1.67;0.70;;;;;;;;;;5032656;28;20033;-39
2022/11/22 04:29:35;;;;;;;1.08;0.95;;;;;;;;;;5032722;28;20239;-40
2022/11/22 04:34:45;;;;;;;0.70;0.40;;;;;;;;;;5032287;28;20168;-40
2022/11/22 04:37:10;;;;;;;1.05;0.82;;;;;;;;;;5032325;28;20033;-40
2022/11/22 04:39:35;;;;;;;0.52;0.52;;;;;;;;;;5031272;28;20061;-40
2022/11/22 04:44:45;;;;;;;0.80;0.68;;;;;;;;;;5032495;28;20112;-40
2022/11/22 04:47:12;;;;;;;0.77;0.77;;;;;;;;;;5031981;28;20104;-40
2022/11/22 04:49:37;;;;;;;0.85;0.85;;;;;;;;;;5032028;28;20415;-39
2022/11/22 04:54:48;;;;;;;1.55;0.65;;;;;;;;;;5032326;28;20026;-40
2022/11/22 04:57:13;;;;;;;0.60;0.40;;;;;;;;;;5032130;28;20017;-40
2022/11/22 04:59:39;;;;;;;0.90;0.90;;;;;;;;;;5032073;28;20041;-39
2022/11/22 05:02:04;;;;;;;0.63;0.63;;;;;;;;;;5031802;28;20104;-39
2022/11/22 05:04:30;;;;;;;0.95;0.55;;;;;;;;;;5031863;28;20033;-40
2022/11/22 05:06:56;;;;;;;0.93;0.50;;;;;;;;;;5032220;28;20071;-39
2022/11/22 05:09:21;;;;;;;0.60;0.50;;;;;;;;;;5031515;28;20456;-39
2022/11/22 05:11:47;;;;;;;0.98;0.77;;;;;;;;;;5031827;28;20041;-40
2022/11/22 05:14:12;;;;;;;0.63;0.40;;;;;;;;;;5031967;28;20053;-39
2022/11/22 05:16:38;;;;;;;0.47;0.47;;;;;;;;;;5032170;28;20018;-39
2022/11/22 05:19:03;;;;;;;0.45;0.45;;;;;;;;;;5031628;28;20099;-40
2022/11/22 05:21:28;;;;;;;0.50;0.50;;;;;;;;;;5031560;28;20056;-39
2022/11/22 05:23:54;;;;;;;0.35;0.35;;;;;;;;;;5031803;28;20495;-40
2022/11/22 05:26:20;;;;;;;0.60;0.50;;;;;;;;;;5031515;28;20028;-39
2022/11/22 05:28:46;;;;;;;0.80;0.80;;;;;;;;;;5031748;28;20116;-39
2022/11/22 05:31:13;;;;;;;1.15;0.82;;;;;;;;;;5031307;28;20025;-39
2022/11/22 05:33:39;;;;;;;0.50;0.50;;;;;;;;;;5031695;28;20029;-39
2022/11/22 05:36:05;;;;;;;0.60;0.50;;;;;;;;;;5031704;28;20022;-40
2022/11/22 05:38:30;;;;;;;0.98;0.70;;;;;;;;;;5031576;28;20423;-39
2022/11/22 05:40:56;;;;;;;0.60;0.60;;;;;;;;;;5031631;28;20040;-39
2022/11/22 05:43:21;;;;;;;0.60;0.55;;;;;;;;;;5031587;28;20037;-40
2022/11/22 05:45:47;;;;;;;0.75;0.52;;;;;;;;;;5031353;28;20432;-39
2022/11/22 05:48:13;;;;;;;0.77;0.57;;;;;;;;;;5031289;28;20029;-40
2022/11/22 05:50:39;;;;;;;0.70;0.57;;;;;;;;;;5031542;28;20038;-39
2022/11/22 05:53:04;;;;;;;0.65;0.60;;;;;;;;;;5031430;28;20526;-40
2022/11/22 05:55:30;;;;;;;0.65;0.65;;;;;;;;;;5031310;28;20375;-40
2022/11/22 05:57:59;;;;;;;0.70;0.57;;;;;;;;;;5031166;28;20044;-39
2022/11/22 06:00:25;;;;;;;1.38;0.40;;;;;;;;;;5031464;28;20040;-39
2022/11/22 06:02:50;;;;;;;0.80;0.80;;;;;;;;;;5031147;28;20472;-39
2022/11/22 06:05:16;;;;;;;1.10;1.08;;;;;;;;;;5031216;28;20126;-39
2022/11/22 06:07:41;;;;;;;1.40;1.05;;;;;;;;;;5031218;28;20468;-40
2022/11/22 06:10:07;;;;;;;1.85;0.73;;;;;;;;;;5031511;28;20044;-40
2022/11/22 06:12:32;;;;;;;0.60;0.60;;;;;;;;;;5031019;28;20029;-39
2022/11/22 06:14:57;;;;;;;1.50;1.10;;;;;;;;;;5031130;28;20025;-39
2022/11/22 06:17:23;;;;;;;1.50;1.10;;;;;;;;;;5031280;28;20033;-39
2022/11/22 06:19:48;;;;;;;0.50;0.50;;;;;;;;;;5031175;28;20460;-39
2022/11/22 06:22:14;;;;;;;0.57;0.57;;;;;;;;;;5030979;28;20403;-39
2022/11/22 06:24:41;;;;;;;1.35;0.80;;;;;;;;;;5029718;28;20049;-40
2022/11/22 06:27:07;;;;;;;2.17;0.60;;;;;;;;;;5030868;28;20033;-40
2022/11/22 06:29:32;;;;;;;0.50;0.35;;;;;;;;;;5031034;28;20017;-39
2022/11/22 06:31:58;;;;;;;1.48;0.98;;;;;;;;;;5031141;28;20040;-40
2022/11/22 06:34:24;;;;;;;1.33;1.20;;;;;;;;;;5030695;28;20132;-40
2022/11/22 06:36:50;;;;;;;0.88;0.60;;;;;;;;;;5031111;28;20033;-39
2022/11/22 06:39:15;;;;;;;0.80;0.68;;;;;;;;;;5030912;28;20100;-40
2022/11/22 06:41:41;;;;;;;0.93;0.75;;;;;;;;;;5030850;28;20035;-40
2022/11/22 06:44:07;;;;;;;2.25;1.10;;;;;;;;;;5034662;28;20527;-40
2022/11/22 06:46:33;;;;;;;0.63;0.60;;;;;;;;;;5034815;28;20440;-40
2022/11/22 06:48:59;;;;;;;1.05;0.70;;;;;;;;;;5034164;28;20077;-40
2022/11/22 06:51:28;;;;;;;1.10;0.82;;;;;;;;;;5049787;28;20033;-40
2022/11/22 06:53:54;;;;;;;1.13;0.90;;;;;;;;;;5034637;28;20037;-39
2022/11/22 06:56:21;;;;;;;2.17;1.08;;;;;;;;;;5034394;28;20022;-39
2022/11/22 06:58:47;;;;;;;1.42;0.68;;;;;;;;;;5034138;28;20065;-39
2022/11/22 07:01:17;;;;;;;1.30;0.60;;;;;;;;;;5034043;28;20032;-39
2022/11/22 07:03:42;;;;;;;1.38;0.90;;;;;;;;;;5034100;28;20479;-39
2022/11/22 07:06:09;;;;;;;1.90;1.52;;;;;;;;;;5033923;28;20041;-39
2022/11/22 07:08:35;;;;;;;0.77;0.70;;;;;;;;;;5034055;28;20021;-39
2022/11/22 07:11:04;;;;;;;0.55;0.55;;;;;;;;;;5033880;28;20028;-39
2022/11/22 07:13:30;;;;;;;1.27;1.00;;;;;;;;;;5033915;28;20033;-40
2022/11/22 07:15:56;;;;;;;0.82;0.77;;;;;;;;;;5033864;28;20030;-40
2022/11/22 07:18:22;;;;;;;2.80;1.20;;;;;;;;;;5033982;28;20033;-39
2022/11/22 07:20:47;;;;;;;0.95;0.77;;;;;;;;;;5034024;28;20120;-40
2022/11/22 07:23:14;;;;;;;0.90;0.63;;;;;;;;;;5033737;28;20032;-39
2022/11/22 07:25:46;;;;;;;1.13;0.60;;;;;;;;;;5033610;28;20045;-39
2022/11/22 07:28:12;;;;;;;1.70;1.20;;;;;;;;;;5033566;28;20117;-39
2022/11/22 07:30:37;;;;;;;0.73;0.73;;;;;;;;;;5033782;28;20116;-39
2022/11/22 07:33:02;;;;;;;1.05;0.93;;;;;;;;;;5033542;28;20463;-40
2022/11/22 07:35:28;;;;;;;0.57;0.57;;;;;;;;;;5033620;28;20132;-39
2022/11/22 07:37:53;;;;;;;1.50;0.85;;;;;;;;;;5033352;28;20134;-39
2022/11/22 07:40:19;;;;;;;1.70;0.95;;;;;;;;;;5033613;28;20025;-39
2022/11/22 07:42:44;;;;;;;0.88;0.73;;;;;;;;;;5033483;28;20036;-41
2022/11/22 07:45:10;;;;;;;4.40;0.65;;;;;;;;;;5033458;28;20036;-39
2022/11/22 07:47:35;;;;;;;1.08;0.73;;;;;;;;;;5033358;28;20419;-40
2022/11/22 07:50:00;;;;;;;1.90;1.00;;;;;;;;;;5031665;28;20084;-39
2022/11/22 07:52:26;;;;;;;0.68;0.47;;;;;;;;;;5032862;28;20032;-39
2022/11/22 07:54:51;;;;;;;1.40;0.70;;;;;;;;;;5032679;28;20456;-39
2022/11/22 07:57:17;;;;;;;0.95;0.90;;;;;;;;;;5032962;28;20143;-39
2022/11/22 07:59:43;;;;;;;0.90;0.90;;;;;;;;;;5032947;28;20041;-39
2022/11/22 08:02:10;;;;;;;1.17;0.73;;;;;;;;;;5032905;28;20384;-39
2022/11/22 08:04:35;;;;;;;0.75;0.57;;;;;;;;;;5033326;28;20021;-39
2022/11/22 08:07:01;;;;;;;0.93;0.60;;;;;;;;;;5032790;28;20559;-39
2022/11/22 08:09:26;;;;;;;1.15;0.90;;;;;;;;;;5031622;28;20083;-39
2022/11/22 08:11:52;;;;;;;1.38;1.27;;;;;;;;;;5032945;28;20076;-40
2022/11/22 08:14:17;;;;;;;0.80;0.80;;;;;;;;;;5032669;28;20471;-39
2022/11/22 08:16:43;;;;;;;1.15;0.70;;;;;;;;;;5032749;28;20034;-39
2022/11/22 08:19:09;;;;;;;1.55;1.00;;;;;;;;;;5032820;28;20033;-40
2022/11/22 08:21:35;;;;;;;0.65;0.60;;;;;;;;;;5032885;28;20428;-39
2022/11/22 08:24:00;;;;;;;0.45;0.45;;;;;;;;;;5032702;28;20107;-40
2022/11/22 08:26:27;;;;;;;0.20;0.20;;;;;;;;;;5032890;28;20029;-40
2022/11/22 08:28:52;;;;;;;1.02;0.93;;;;;;;;;;5032430;28;20087;-39
2022/11/22 08:31:18;;;;;;;0.60;0.60;;;;;;;;;;5032380;28;20527;-40
2022/11/22 08:33:45;;;;;;;1.65;0.98;;;;;;;;;;5032379;28;20112;-39
2022/11/22 08:36:11;;;;;;;1.20;1.08;;;;;;;;;;5032201;28;20393;-40
2022/11/22 08:38:36;;;;;;;1.30;1.20;;;;;;;;;;5032643;28;20190;-40
2022/11/22 08:41:03;;;;;;;0.52;0.45;;;;;;;;;;5032113;28;20096;-40
2022/11/22 08:43:29;;;;;;;0.50;0.50;;;;;;;;;;5032243;28;20045;-40
2022/11/22 08:45:55;;;;;;;0.40;0.40;;;;;;;;;;5032240;28;20068;-40
2022/11/22 08:48:21;;;;;;;1.70;0.50;;;;;;;;;;5031923;28;20049;-40
2022/11/22 08:50:51;;;;;;;1.52;0.93;;;;;;;;;;5032383;28;20132;-40
2022/11/22 08:53:16;;;;;;;0.60;0.52;;;;;;;;;;5031979;28;20060;-40
2022/11/22 08:55:42;;;;;;;1.13;0.45;;;;;;;;;;5031070;28;20061;-39
2022/11/22 08:58:07;;;;;;;0.32;0.32;;;;;;;;;;5032086;28;20035;-39
2022/11/22 09:00:33;;;;;;;1.52;1.00;;;;;;;;;;5031981;28;20383;-39
2022/11/22 09:02:58;;;;;;;0.55;0.55;;;;;;;;;;5032188;28;20021;-40
2022/11/22 09:05:24;;;;;;;0.80;0.43;;;;;;;;;;5030429;28;20037;-39
2022/11/22 09:07:49;;;;;;;1.70;0.65;;;;;;;;;;5030657;28;20182;-39
2022/11/22 09:10:15;;;;;;;1.25;1.10;;;;;;;;;;5031826;28;20035;-39
2022/11/22 09:12:44;;;;;;;1.08;0.90;;;;;;;;;;5032095;28;20495;-40
2022/11/22 09:15:09;;;;;;;0.55;0.55;;;;;;;;;;5031693;28;20033;-39
2022/11/22 09:17:35;;;;;;;0.60;0.60;;;;;;;;;;5031558;28;20032;-39
2022/11/22 09:20:00;;;;;;;1.13;0.70;;;;;;;;;;5031856;28;20026;-40
2022/11/22 09:22:26;;;;;;;0.70;0.55;;;;;;;;;;5031605;28;20380;-39
2022/11/22 09:24:51;;;;;;;2.08;0.73;;;;;;;;;;5031846;28;20059;-40
2022/11/22 09:27:17;;;;;;;0.50;0.50;;;;;;;;;;5031807;28;20379;-40
2022/11/22 09:29:42;;;;;;;0.43;0.35;;;;;;;;;;5031455;28;20037;-40
2022/11/22 09:32:09;;;;;;;0.30;0.30;;;;;;;;;;5031381;28;20018;-40
2022/11/22 09:34:34;;;;;;;0.65;0.65;;;;;;;;;;5031776;28;20064;-39
2022/11/22 09:36:59;;;;;;;0.50;0.50;;;;;;;;;;5031411;28;20537;-40
2022/11/22 09:39:25;;;;;;;0.68;0.68;;;;;;;;;;5031177;28;20048;-39
2022/11/22 09:42:05;;;;;;;0.40;0.40;;;;;;;;;;5030124;28;20067;-39
2022/11/22 09:44:49;;;;;;;1.08;0.93;;;;;;;;;;5031390;28;20029;-39
2022/11/22 09:47:14;;;;;;;0.70;0.70;;;;;;;;;;5031476;28;20033;-39
2022/11/22 09:49:40;;;;;;;0.60;0.60;;;;;;;;;;5031200;28;20081;-40
2022/11/22 09:52:08;;;;;;;0.75;0.52;;;;;;;;;;5031176;28;20030;-40
2022/11/22 09:54:40;;;;;;;0.50;0.50;;;;;;;;;;5031275;28;20030;-39
2022/11/22 09:57:08;;;;;;;0.63;0.57;;;;;;;;;;5031097;28;20029;-39
2022/11/22 09:59:35;;;;;;;0.85;0.70;;;;;;;;;;5031167;28;20025;-39
2022/11/22 10:02:04;;;;;;;0.43;0.35;;;;;;;;;;5029874;28;20033;-40
2022/11/22 10:04:43;;;;;;;0.20;0.20;;;;;;;;;;5031219;28;20115;-40
2022/11/22 10:07:11;;;;;;;0.32;0.32;;;;;;;;;;5031071;28;20033;-39
2022/11/22 10:09:52;;;;;;;0.40;0.40;;;;;;;;;;5031077;28;20034;-40
2022/11/22 10:12:27;;;;;;;0.50;0.50;;;;;;;;;;5031022;28;20025;-40
2022/11/22 10:15:05;;;;;;;0.73;0.73;;;;;;;;;;5031381;28;20064;-39
2022/11/22 10:17:43;;;;;;;0.68;0.68;;;;;;;;;;5033746;28;20036;-39
2022/11/22 10:20:11;;;;;;;0.85;0.50;;;;;;;;;;5035134;28;20076;-39
2022/11/22 10:22:37;;;;;;;0.40;0.40;;;;;;;;;;5034872;28;20021;-40
2022/11/22 10:25:08;;;;;;;0.50;0.50;;;;;;;;;;5034011;28;20038;-40
2022/11/22 10:27:34;;;;;;;0.35;0.35;;;;;;;;;;5033502;28;20523;-39
2022/11/22 10:30:12;;;;;;;0.50;0.40;;;;;;;;;;5034655;28;20117;-39
2022/11/22 10:33:03;;;;;;;0.63;0.50;;;;;;;;;;5034711;28;20114;-39
2022/11/22 10:35:31;;;;;;;0.63;0.43;;;;;;;;;;5016909;28;20087;-39
2022/11/22 10:37:57;;;;;;;0.43;0.43;;;;;;;;;;5034550;28;20021;-40
2022/11/22 10:40:27;;;;;;;0.80;0.60;;;;;;;;;;5034551;28;20030;-40
2022/11/22 10:43:11;;;;;;;3.50;0.60;;;;;;;;;;5034462;28;20052;-39
2022/11/22 10:45:48;;;;;;;0.73;0.73;;;;;;;;;;5034513;28;20095;-40
2022/11/22 10:48:14;;;;;;;0.77;0.45;;;;;;;;;;5034372;28;20419;-40
2022/11/22 10:50:56;;;;;;;0.47;0.47;;;;;;;;;;5033077;28;20056;-39
2022/11/22 10:53:32;;;;;;;0.70;0.43;;;;;;;;;;5034345;28;20113;-39
2022/11/22 10:56:16;;;;;;;0.45;0.45;;;;;;;;;;5034362;28;20033;-39
2022/11/22 10:59:01;;;;;;;0.10;0.10;;;;;;;;;;5034113;28;20041;-40
2022/11/22 11:01:45;;;;;;;0.30;0.20;;;;;;;;;;5033184;28;20036;-39
2022/11/22 11:04:12;;;;;;;0.40;0.40;;;;;;;;;;5033936;28;20026;-39
2022/11/22 11:06:42;;;;;;;0.20;0.20;;;;;;;;;;5034182;28;20029;-39
2022/11/22 11:09:40;;;;;;;1.33;0.20;;;;;;;;;;5034001;28;20032;-39
2022/11/22 11:12:11;;;;;;;0.35;0.35;;;;;;;;;;5032544;28;20052;-40
2022/11/22 11:14:44;;;;;;;0.80;0.60;;;;;;;;;;5034365;28;20025;-39
2022/11/22 11:17:12;;;;;;;0.20;0.20;;;;;;;;;;5033952;28;20483;-40
2022/11/22 11:19:42;;;;;;;0.40;0.40;;;;;;;;;;5033633;28;20071;-39
2022/11/22 11:22:07;;;;;;;0.40;0.40;;;;;;;;;;5034015;28;20106;-40
2022/11/22 11:24:34;;;;;;;0.30;0.20;;;;;;;;;;5033743;28;20479;-40
2022/11/22 11:27:00;;;;;;;0.20;0.20;;;;;;;;;;5032126;28;20029;-39
2022/11/22 11:29:45;;;;;;;0.22;0.22;;;;;;;;;;5033566;28;20399;-40
2022/11/22 11:32:11;;;;;;;0.25;0.25;;;;;;;;;;5033474;28;20030;-40
2022/11/22 11:34:37;;;;;;;0.20;0.20;;;;;;;;;;5033848;28;20022;-39
2022/11/22 11:37:04;;;;;;;0.55;0.40;;;;;;;;;;5033538;28;20030;-40
2022/11/22 11:39:31;;;;;;;0.10;0.10;;;;;;;;;;5033382;28;20108;-40
2022/11/22 11:41:57;;;;;;;0.10;0.10;;;;;;;;;;5033487;28;20033;-40
2022/11/22 11:44:31;;;;;;;0.47;0.30;;;;;;;;;;5033349;28;20025;-39
2022/11/22 11:46:57;;;;;;;0.20;0.20;;;;;;;;;;5033269;28;20034;-40
2022/11/22 11:49:24;;;;;;;0.75;0.50;;;;;;;;;;5033016;28;20053;-40
2022/11/22 11:51:52;;;;;;;0.30;0.30;;;;;;;;;;5033560;28;20029;-39
2022/11/22 11:54:19;;;;;;;0.38;0.32;;;;;;;;;;5033107;28;20036;-39
2022/11/22 11:56:50;;;;;;;0.35;0.35;;;;;;;;;;5033250;28;20041;-40
2022/11/22 11:59:31;;;;;;;0.52;0.52;;;;;;;;;;5032915;28;20041;-44
2022/11/22 12:02:02;;;;;;;0.70;0.40;;;;;;;;;;5033129;28;20029;-39
2022/11/22 12:04:29;;;;;;;1.02;0.60;;;;;;;;;;5033194;28;20037;-39
2022/11/22 12:06:56;;;;;;;0.30;0.30;;;;;;;;;;5033372;28;20431;-39
2022/11/22 12:09:27;;;;;;;0.38;0.38;;;;;;;;;;5032742;28;20864;-39
2022/11/22 12:11:53;;;;;;;0.30;0.30;;;;;;;;;;5032850;28;20435;-39
2022/11/22 12:14:22;;;;;;;0.30;0.30;;;;;;;;;;5033028;28;20026;-39
2022/11/22 12:16:51;;;;;;;0.30;0.22;;;;;;;;;;5032798;28;20038;-39
2022/11/22 12:19:16;;;;;;;0.20;0.20;;;;;;;;;;5032886;28;20095;-39
2022/11/22 12:22:00;;;;;;;1.13;0.43;;;;;;;;;;5032714;28;20422;-39
2022/11/22 12:24:29;;;;;;;0.28;0.28;;;;;;;;;;5032826;28;20036;-39
2022/11/22 12:26:55;;;;;;;0.10;0.10;;;;;;;;;;5032914;28;20505;-39
2022/11/22 12:29:21;;;;;;;0.50;0.30;;;;;;;;;;5032391;28;20502;-39
2022/11/22 12:31:51;;;;;;;0.30;0.30;;;;;;;;;;5032463;28;20052;-39
2022/11/22 12:34:25;;;;;;;0.20;0.20;;;;;;;;;;5032686;28;20038;-39
2022/11/22 12:37:03;;;;;;;0.20;0.20;;;;;;;;;;5032293;28;20079;-39
2022/11/22 12:39:29;;;;;;;0.30;0.30;;;;;;;;;;5031784;28;20042;-39
2022/11/22 12:42:09;;;;;;;0.28;0.28;;;;;;;;;;5032568;28;20022;-40
2022/11/22 12:44:43;;;;;;;0.20;0.20;;;;;;;;;;5032289;28;20480;-40
2022/11/22 12:47:12;;;;;;;0.22;0.22;;;;;;;;;;5032394;28;20113;-40
2022/11/22 12:49:37;;;;;;;0.20;0.20;;;;;;;;;;5032089;28;20492;-40
2022/11/22 12:52:13;;;;;;;0.55;0.30;;;;;;;;;;5032101;28;20037;-40
2022/11/22 12:54:46;;;;;;;0.85;0.30;;;;;;;;;;5032158;28;20076;-39
2022/11/22 12:57:18;;;;;;;0.20;0.20;;;;;;;;;;5030732;28;20539;-40
2022/11/22 12:59:53;;;;;;;0.20;0.20;;;;;;;;;;5031923;28;20404;-40
2022/11/22 13:02:51;;;;;;;0.32;0.20;;;;;;;;;;5031784;28;20022;-39
2022/11/22 13:05:17;;;;;;;0.20;0.20;;;;;;;;;;5030445;28;20076;-40
2022/11/22 13:07:48;;;;;;;0.28;0.28;;;;;;;;;;5032232;28;20061;-39
2022/11/22 13:10:17;;;;;;;0.20;0.20;;;;;;;;;;5031674;28;20091;-40
2022/11/22 13:12:43;;;;;;;0.20;0.20;;;;;;;;;;5030872;28;20349;-40
2022/11/22 13:15:12;;;;;;;0.20;0.20;;;;;;;;;;5031984;28;20427;-40
2022/11/22 13:17:38;;;;;;;0.20;0.20;;;;;;;;;;5031741;28;20503;-40
2022/11/22 13:20:04;;;;;;;0.25;0.25;;;;;;;;;;5031480;28;20045;-40
2022/11/22 13:22:41;;;;;;;0.20;0.20;;;;;;;;;;5030201;28;20060;-41
2022/11/22 13:25:13;;;;;;;11.50;0.50;;;;;;;;;;5031546;28;20069;-40
2022/11/22 13:27:40;;;;;;;0.52;0.30;;;;;;;;;;5030568;28;20033;-40
2022/11/22 13:30:15;;;;;;;0.22;0.20;;;;;;;;;;5031565;28;20411;-40
2022/11/22 13:32:41;;;;;;;0.55;0.45;;;;;;;;;;5031508;28;20487;-40
2022/11/22 13:35:10;;;;;;;0.45;0.25;;;;;;;;;;5031430;28;20028;-40
2022/11/22 13:37:37;;;;;;;0.20;0.20;;;;;;;;;;5031542;28;20033;-40
2022/11/22 13:40:19;;;;;;;0.30;0.30;;;;;;;;;;5031297;28;20323;-41
2022/11/22 13:42:44;;;;;;;0.57;0.20;;;;;;;;;;5031461;28;20534;-40
2022/11/22 13:45:19;;;;;;;0.20;0.20;;;;;;;;;;5031256;28;20022;-40
2022/11/22 13:47:44;;;;;;;0.30;0.30;;;;;;;;;;5031387;28;20030;-41
2022/11/22 13:50:43;;;;;;;0.20;0.20;;;;;;;;;;5031619;28;20056;-40
2022/11/22 13:53:17;;;;;;;0.20;0.20;;;;;;;;;;5035275;28;20025;-40
2022/11/22 13:55:43;;;;;;;0.95;0.85;;;;;;;;;;5035685;28;20057;-39
2022/11/22 13:58:41;;;;;;;0.10;0.10;;;;;;;;;;5033911;28;20049;-40
2022/11/22 14:01:33;;;;;;;0.20;0.20;;;;;;;;;;5034011;28;20052;-40
2022/11/22 14:04:18;;;;;;;0.10;0.10;;;;;;;;;;5034288;28;20034;-39
2022/11/22 14:06:48;;;;;;;0.10;0.10;;;;;;;;;;5035513;28;20388;-40
2022/11/22 14:09:35;;;;;;;0.10;0.10;;;;;;;;;;5033836;28;20022;-40
2022/11/22 14:12:10;;;;;;;0.95;0.50;;;;;;;;;;5034513;28;20049;-40
2022/11/22 14:14:59;;;;;;;0.20;0.20;;;;;;;;;;5035179;28;20036;-40
2022/11/22 14:17:51;;;;;;;0.50;0.25;;;;;;;;;;5034388;28;20087;-39
2022/11/22 14:20:39;;;;;;;0.28;0.28;;;;;;;;;;5035186;28;20045;-39
2022/11/22 14:23:14;;;;;;;0.20;0.20;;;;;;;;;;5033700;28;20117;-40
2022/11/22 14:25:45;;;;;;;0.20;0.20;;;;;;;;;;5034894;28;20507;-40
2022/11/22 14:28:22;;;;;;;0.10;0.10;;;;;;;;;;5034732;28;20533;-40
2022/11/22 14:30:50;;;;;;;0.20;0.20;;;;;;;;;;5034772;28;20041;-40
2022/11/22 14:33:20;;;;;;;0.20;0.20;;;;;;;;;;5034669;28;20478;-40
2022/11/22 14:36:04;;;;;;;0.10;0.10;;;;;;;;;;5034673;28;20033;-40
2022/11/22 14:38:30;;;;;;;0.10;0.10;;;;;;;;;;5034422;28;20029;-40
2022/11/22 14:41:31;;;;;;;0.75;0.75;;;;;;;;;;5034599;28;20071;-40
2022/11/22 14:43:57;;;;;;;0.10;0.10;;;;;;;;;;5032117;28;20052;-40
2022/11/22 14:46:24;;;;;;;0.20;0.20;;;;;;;;;;5033803;28;20116;-40
2022/11/22 14:48:58;;;;;;;0.20;0.20;;;;;;;;;;5034335;28;20048;-40
2022/11/22 14:51:27;;;;;;;0.20;0.20;;;;;;;;;;5034382;28;20043;-39
2022/11/22 14:54:04;;;;;;;0.20;0.20;;;;;;;;;;5034382;28;20088;-39
2022/11/22 14:56:32;;;;;;;0.20;0.20;;;;;;;;;;5034346;28;20095;-39
2022/11/22 14:59:11;;;;;;;0.20;0.20;;;;;;;;;;5034129;28;20029;-41
2022/11/22 15:01:44;;;;;;;0.20;0.20;;;;;;;;;;5034303;28;20365;-40
2022/11/22 15:04:12;;;;;;;0.20;0.20;;;;;;;;;;5034023;28;20112;-39